sensor_id;sensor_type;location;lat;lon;timestamp;pressure;altitude;pressure_sealevel;temperature;humidity
75420;BME280;63998;52.488;13.428;2023-06-10T00:00:48;101110.53;;;19.21;56.50
75420;BME280;63998;52.488;13.428;2023-06-10T00:03:14;101113.97;;;19.23;56.67
75420;BME280;63998;52.488;13.428;2023-06-10T00:05:39;101109.59;;;19.23;56.89
75420;BME280;63998;52.488;13.428;2023-06-10T00:08:05;101113.19;;;19.19;57.37
75420;BME280;63998;52.488;13.428;2023-06-10T00:10:37;101109.13;;;19.08;57.83
75420;BME280;63998;52.488;13.428;2023-06-10T00:13:06;101111.13;;;18.99;58.25
75420;BME280;63998;52.488;13.428;2023-06-10T00:15:34;101101.56;;;18.95;58.46
75420;BME280;63998;52.488;13.428;2023-06-10T00:18:00;101106.00;;;18.93;58.00
75420;BME280;63998;52.488;13.428;2023-06-10T00:20:28;101113.00;;;18.94;57.51
75420;BME280;63998;52.488;13.428;2023-06-10T00:22:55;101099.72;;;18.99;57.70
75420;BME280;63998;52.488;13.428;2023-06-10T00:25:22;101092.66;;;19.01;57.46
75420;BME280;63998;52.488;13.428;2023-06-10T00:27:47;101088.59;;;18.89;58.64
75420;BME280;63998;52.488;13.428;2023-06-10T00:30:13;101102.50;;;18.93;58.18
75420;BME280;63998;52.488;13.428;2023-06-10T00:32:38;101095.41;;;18.96;57.74
75420;BME280;63998;52.488;13.428;2023-06-10T00:35:04;101103.47;;;18.90;58.56
75420;BME280;63998;52.488;13.428;2023-06-10T00:37:30;101101.09;;;18.80;58.49
75420;BME280;63998;52.488;13.428;2023-06-10T00:39:55;101108.13;;;18.79;58.28
75420;BME280;63998;52.488;13.428;2023-06-10T00:42:21;101095.97;;;18.75;58.19
75420;BME280;63998;52.488;13.428;2023-06-10T00:44:50;101101.22;;;18.75;58.79
75420;BME280;63998;52.488;13.428;2023-06-10T00:47:15;101101.66;;;18.57;59.46
75420;BME280;63998;52.488;13.428;2023-06-10T00:49:41;101092.38;;;18.42;59.60
75420;BME280;63998;52.488;13.428;2023-06-10T00:52:06;101095.19;;;18.35;59.99
75420;BME280;63998;52.488;13.428;2023-06-10T00:54:32;101102.19;;;18.36;60.00
75420;BME280;63998;52.488;13.428;2023-06-10T00:57:00;101103.19;;;18.30;60.37
75420;BME280;63998;52.488;13.428;2023-06-10T00:59:27;101102.25;;;18.33;59.71
75420;BME280;63998;52.488;13.428;2023-06-10T01:01:53;101101.56;;;18.26;60.59
75420;BME280;63998;52.488;13.428;2023-06-10T01:04:18;101099.97;;;18.19;61.08
75420;BME280;63998;52.488;13.428;2023-06-10T01:07:06;101108.06;;;18.10;61.37
75420;BME280;63998;52.488;13.428;2023-06-10T01:12:31;101111.38;;;18.18;60.78
75420;BME280;63998;52.488;13.428;2023-06-10T01:14:59;101111.50;;;18.13;61.35
75420;BME280;63998;52.488;13.428;2023-06-10T01:17:25;101109.72;;;18.15;61.03
75420;BME280;63998;52.488;13.428;2023-06-10T01:19:55;101111.63;;;18.07;61.27
75420;BME280;63998;52.488;13.428;2023-06-10T01:22:25;101108.16;;;18.05;61.49
75420;BME280;63998;52.488;13.428;2023-06-10T01:24:54;101113.41;;;18.05;61.20
75420;BME280;63998;52.488;13.428;2023-06-10T01:27:23;101116.88;;;18.07;61.23
75420;BME280;63998;52.488;13.428;2023-06-10T01:30:01;101118.63;;;18.08;61.03
75420;BME280;63998;52.488;13.428;2023-06-10T01:32:34;101117.72;;;18.09;61.08
75420;BME280;63998;52.488;13.428;2023-06-10T01:35:02;101110.75;;;18.07;60.95
75420;BME280;63998;52.488;13.428;2023-06-10T01:37:29;101120.50;;;18.03;60.71
75420;BME280;63998;52.488;13.428;2023-06-10T01:39:58;101122.13;;;18.07;61.01
75420;BME280;63998;52.488;13.428;2023-06-10T01:42:25;101120.50;;;18.03;61.16
75420;BME280;63998;52.488;13.428;2023-06-10T01:44:50;101116.97;;;18.04;61.19
75420;BME280;63998;52.488;13.428;2023-06-10T01:47:16;101118.84;;;17.99;61.00
75420;BME280;63998;52.488;13.428;2023-06-10T01:49:42;101117.09;;;17.98;61.48
75420;BME280;63998;52.488;13.428;2023-06-10T01:52:07;101122.34;;;17.98;61.15
75420;BME280;63998;52.488;13.428;2023-06-10T01:54:32;101118.84;;;17.99;60.98
75420;BME280;63998;52.488;13.428;2023-06-10T01:57:00;101122.41;;;17.95;61.22
75420;BME280;63998;52.488;13.428;2023-06-10T01:59:25;101123.41;;;17.91;61.50
75420;BME280;63998;52.488;13.428;2023-06-10T02:01:51;101126.03;;;17.91;61.61
75420;BME280;63998;52.488;13.428;2023-06-10T02:04:16;101120.78;;;17.91;61.45
75420;BME280;63998;52.488;13.428;2023-06-10T02:06:41;101112.06;;;17.89;61.35
75420;BME280;63998;52.488;13.428;2023-06-10T02:09:07;101123.53;;;17.85;61.67
75420;BME280;63998;52.488;13.428;2023-06-10T02:11:33;101119.94;;;17.89;61.53
75420;BME280;63998;52.488;13.428;2023-06-10T02:13:58;101126.91;;;17.91;61.28
75420;BME280;63998;52.488;13.428;2023-06-10T02:16:23;101120.69;;;17.94;61.51
75420;BME280;63998;52.488;13.428;2023-06-10T02:18:49;101131.34;;;17.88;62.08
75420;BME280;63998;52.488;13.428;2023-06-10T02:21:14;101127.94;;;17.83;61.81
75420;BME280;63998;52.488;13.428;2023-06-10T02:23:40;101129.72;;;17.82;61.58
75420;BME280;63998;52.488;13.428;2023-06-10T02:26:05;101133.28;;;17.80;61.65
75420;BME280;63998;52.488;13.428;2023-06-10T02:28:31;101135.13;;;17.75;62.18
75420;BME280;63998;52.488;13.428;2023-06-10T02:30:56;101138.72;;;17.71;62.47
75420;BME280;63998;52.488;13.428;2023-06-10T02:33:22;101130.00;;;17.69;62.29
75420;BME280;63998;52.488;13.428;2023-06-10T02:35:48;101133.63;;;17.62;62.62
75420;BME280;63998;52.488;13.428;2023-06-10T02:38:13;101133.69;;;17.58;62.25
75420;BME280;63998;52.488;13.428;2023-06-10T02:40:39;101135.47;;;17.56;62.33
75420;BME280;63998;52.488;13.428;2023-06-10T02:43:04;101135.47;;;17.56;62.68
75420;BME280;63998;52.488;13.428;2023-06-10T02:45:30;101125.97;;;17.51;62.53
75420;BME280;63998;52.488;13.428;2023-06-10T02:47:55;101130.56;;;17.41;63.38
75420;BME280;63998;52.488;13.428;2023-06-10T02:50:20;101131.50;;;17.37;63.06
75420;BME280;63998;52.488;13.428;2023-06-10T02:52:48;101132.41;;;17.36;63.00
75420;BME280;63998;52.488;13.428;2023-06-10T02:55:14;101134.19;;;17.34;63.57
75420;BME280;63998;52.488;13.428;2023-06-10T02:57:39;101134.19;;;17.34;63.50
75420;BME280;63998;52.488;13.428;2023-06-10T03:00:05;101135.09;;;17.32;63.40
75420;BME280;63998;52.488;13.428;2023-06-10T03:02:34;101145.59;;;17.32;63.55
75420;BME280;63998;52.488;13.428;2023-06-10T03:05:04;101137.88;;;17.24;64.03
75420;BME280;63998;52.488;13.428;2023-06-10T03:07:30;101136.16;;;17.23;63.56
75420;BME280;63998;52.488;13.428;2023-06-10T03:09:56;101137.81;;;17.29;63.51
75420;BME280;63998;52.488;13.428;2023-06-10T03:12:21;101137.84;;;17.27;63.82
75420;BME280;63998;52.488;13.428;2023-06-10T03:14:47;101137.78;;;17.30;63.58
75420;BME280;63998;52.488;13.428;2023-06-10T03:17:12;101133.31;;;17.34;63.42
75420;BME280;63998;52.488;13.428;2023-06-10T03:19:37;101134.19;;;17.34;63.91
75420;BME280;63998;52.488;13.428;2023-06-10T03:22:11;101137.63;;;17.38;63.48
75420;BME280;63998;52.488;13.428;2023-06-10T03:24:37;101139.38;;;17.37;63.27
75420;BME280;63998;52.488;13.428;2023-06-10T03:27:08;101144.63;;;17.37;63.11
75420;BME280;63998;52.488;13.428;2023-06-10T03:29:35;101135.88;;;17.37;63.17
75420;BME280;63998;52.488;13.428;2023-06-10T03:32:01;101137.66;;;17.36;63.43
75420;BME280;63998;52.488;13.428;2023-06-10T03:34:26;101142.91;;;17.36;63.38
75420;BME280;63998;52.488;13.428;2023-06-10T03:36:52;101142.88;;;17.38;63.05
75420;BME280;63998;52.488;13.428;2023-06-10T03:39:17;101149.06;;;17.34;63.35
75420;BME280;63998;52.488;13.428;2023-06-10T03:41:42;101149.06;;;17.34;63.62
75420;BME280;63998;52.488;13.428;2023-06-10T03:44:08;101147.47;;;17.27;63.85
75420;BME280;63998;52.488;13.428;2023-06-10T03:46:33;101146.59;;;17.26;64.05
75420;BME280;63998;52.488;13.428;2023-06-10T03:48:58;101151.94;;;17.20;64.16
75420;BME280;63998;52.488;13.428;2023-06-10T03:51:26;101147.53;;;17.23;63.92
75420;BME280;63998;52.488;13.428;2023-06-10T03:53:52;101149.25;;;17.24;64.34
75420;BME280;63998;52.488;13.428;2023-06-10T03:56:17;101151.88;;;17.24;64.31
75420;BME280;63998;52.488;13.428;2023-06-10T03:58:42;101152.66;;;17.30;63.79
75420;BME280;63998;52.488;13.428;2023-06-10T04:01:08;101150.91;;;17.30;63.59
75420;BME280;63998;52.488;13.428;2023-06-10T04:03:33;101158.69;;;17.33;63.76
75420;BME280;63998;52.488;13.428;2023-06-10T04:05:59;101158.69;;;17.33;64.20
75420;BME280;63998;52.488;13.428;2023-06-10T04:08:24;101157.06;;;17.29;63.96
75420;BME280;63998;52.488;13.428;2023-06-10T04:10:49;101167.59;;;17.26;64.33
75420;BME280;63998;52.488;13.428;2023-06-10T04:13:15;101163.13;;;17.31;63.98
75420;BME280;63998;52.488;13.428;2023-06-10T04:15:40;101165.63;;;17.39;63.84
75420;BME280;63998;52.488;13.428;2023-06-10T04:18:06;101172.44;;;17.47;63.44
75420;BME280;63998;52.488;13.428;2023-06-10T04:20:31;101162.06;;;17.41;64.19
75420;BME280;63998;52.488;13.428;2023-06-10T04:22:57;101155.00;;;17.43;63.75
75420;BME280;63998;52.488;13.428;2023-06-10T04:25:22;101163.66;;;17.48;63.21
75420;BME280;63998;52.488;13.428;2023-06-10T04:27:49;101161.00;;;17.51;63.19
75420;BME280;63998;52.488;13.428;2023-06-10T04:30:16;101164.59;;;17.46;63.90
75420;BME280;63998;52.488;13.428;2023-06-10T04:32:41;101161.97;;;17.44;63.45
75420;BME280;63998;52.488;13.428;2023-06-10T04:35:07;101166.28;;;17.48;63.41
75420;BME280;63998;52.488;13.428;2023-06-10T04:37:32;101172.34;;;17.53;63.30
75420;BME280;63998;52.488;13.428;2023-06-10T04:39:58;101177.44;;;17.59;63.03
75420;BME280;63998;52.488;13.428;2023-06-10T04:42:24;101182.50;;;17.72;62.96
75420;BME280;63998;52.488;13.428;2023-06-10T04:44:49;101178.00;;;17.78;63.19
75420;BME280;63998;52.488;13.428;2023-06-10T04:47:15;101175.25;;;17.83;62.46
75420;BME280;63998;52.488;13.428;2023-06-10T04:49:42;101175.06;;;17.92;62.18
75420;BME280;63998;52.488;13.428;2023-06-10T04:52:07;101174.94;;;17.98;62.03
75420;BME280;63998;52.488;13.428;2023-06-10T04:54:33;101177.31;;;18.09;61.64
75420;BME280;63998;52.488;13.428;2023-06-10T04:56:58;101189.63;;;18.07;61.95
75420;BME280;63998;52.488;13.428;2023-06-10T04:59:24;101185.25;;;18.07;61.88
75420;BME280;63998;52.488;13.428;2023-06-10T05:01:50;101188.72;;;18.09;61.88
75420;BME280;63998;52.488;13.428;2023-06-10T05:04:15;101186.69;;;18.20;61.54
75420;BME280;63998;52.488;13.428;2023-06-10T05:06:40;101188.44;;;18.21;61.65
75420;BME280;63998;52.488;13.428;2023-06-10T05:09:06;101193.69;;;18.21;61.48
75420;BME280;63998;52.488;13.428;2023-06-10T05:11:31;101186.53;;;18.29;61.14
75420;BME280;63998;52.488;13.428;2023-06-10T05:13:56;101187.16;;;18.39;60.95
75420;BME280;63998;52.488;13.428;2023-06-10T05:16:22;101188.75;;;18.46;60.87
75420;BME280;63998;52.488;13.428;2023-06-10T05:18:47;101186.88;;;18.51;60.86
75420;BME280;63998;52.488;13.428;2023-06-10T05:21:12;101191.13;;;18.57;60.71
75420;BME280;63998;52.488;13.428;2023-06-10T05:23:37;101187.38;;;18.67;60.15
75420;BME280;63998;52.488;13.428;2023-06-10T05:26:03;101193.16;;;18.83;60.18
75420;BME280;63998;52.488;13.428;2023-06-10T05:28:28;101193.88;;;18.89;60.02
75420;BME280;63998;52.488;13.428;2023-06-10T05:30:53;101199.03;;;18.92;59.92
75420;BME280;63998;52.488;13.428;2023-06-10T05:33:19;101190.09;;;18.99;59.55
75420;BME280;63998;52.488;13.428;2023-06-10T05:35:44;101194.97;;;19.15;59.15
75420;BME280;63998;52.488;13.428;2023-06-10T05:38:10;101192.81;;;19.29;59.02
75420;BME280;63998;52.488;13.428;2023-06-10T05:40:35;101196.97;;;19.39;58.86
75420;BME280;63998;52.488;13.428;2023-06-10T05:43:00;101189.66;;;19.50;58.53
75420;BME280;63998;52.488;13.428;2023-06-10T05:45:27;101196.13;;;19.69;57.97
75420;BME280;63998;52.488;13.428;2023-06-10T05:47:52;101202.06;;;19.78;58.07
75420;BME280;63998;52.488;13.428;2023-06-10T05:50:17;101188.69;;;19.84;57.91
75420;BME280;63998;52.488;13.428;2023-06-10T05:52:43;101187.75;;;19.86;57.64
75420;BME280;63998;52.488;13.428;2023-06-10T05:55:08;101196.78;;;20.07;57.21
75420;BME280;63998;52.488;13.428;2023-06-10T05:57:34;101193.78;;;20.19;56.95
75420;BME280;63998;52.488;13.428;2023-06-10T05:59:59;101201.28;;;20.33;56.62
75420;BME280;63998;52.488;13.428;2023-06-10T06:02:25;101198.34;;;20.43;56.41
75420;BME280;63998;52.488;13.428;2023-06-10T06:04:50;101199.66;;;20.57;56.00
75420;BME280;63998;52.488;13.428;2023-06-10T06:07:16;101201.22;;;20.64;55.71
75420;BME280;63998;52.488;13.428;2023-06-10T06:09:41;101202.56;;;20.77;55.37
75420;BME280;63998;52.488;13.428;2023-06-10T06:12:07;101204.16;;;20.81;55.50
75420;BME280;63998;52.488;13.428;2023-06-10T06:14:37;101203.06;;;20.88;55.18
75420;BME280;63998;52.488;13.428;2023-06-10T06:17:03;101202.75;;;20.97;54.88
75420;BME280;63998;52.488;13.428;2023-06-10T06:19:29;101203.34;;;21.05;54.49
75420;BME280;63998;52.488;13.428;2023-06-10T06:21:54;101210.94;;;21.14;54.34
75420;BME280;63998;52.488;13.428;2023-06-10T06:24:19;101209.63;;;21.28;53.77
75420;BME280;63998;52.488;13.428;2023-06-10T06:26:45;101216.44;;;21.35;53.45
75420;BME280;63998;52.488;13.428;2023-06-10T06:29:10;101213.44;;;21.45;53.49
75420;BME280;63998;52.488;13.428;2023-06-10T06:31:35;101216.78;;;21.50;53.20
75420;BME280;63998;52.488;13.428;2023-06-10T06:34:01;101216.84;;;21.49;53.27
75420;BME280;63998;52.488;13.428;2023-06-10T06:36:27;101226.25;;;21.56;52.92
75420;BME280;63998;52.488;13.428;2023-06-10T06:38:52;101218.81;;;21.67;52.75
75420;BME280;63998;52.488;13.428;2023-06-10T06:41:17;101225.63;;;21.74;52.57
75420;BME280;63998;52.488;13.428;2023-06-10T06:43:43;101232.28;;;21.84;52.17
75420;BME280;63998;52.488;13.428;2023-06-10T06:46:08;101229.53;;;21.88;52.09
75420;BME280;63998;52.488;13.428;2023-06-10T06:48:34;101233.78;;;21.92;52.00
75420;BME280;63998;52.488;13.428;2023-06-10T06:50:59;101238.16;;;21.93;52.03
75420;BME280;63998;52.488;13.428;2023-06-10T06:53:25;101244.25;;;21.95;52.09
75420;BME280;63998;52.488;13.428;2023-06-10T06:55:50;101238.41;;;22.10;51.74
75420;BME280;63998;52.488;13.428;2023-06-10T06:58:15;101234.38;;;22.23;51.42
75420;BME280;63998;52.488;13.428;2023-06-10T07:00:41;101233.91;;;22.35;51.18
75420;BME280;63998;52.488;13.428;2023-06-10T07:03:06;101228.84;;;22.51;50.85
75420;BME280;63998;52.488;13.428;2023-06-10T07:05:32;101226.72;;;22.61;50.72
75420;BME280;63998;52.488;13.428;2023-06-10T07:07:57;101229.72;;;22.51;50.65
75420;BME280;63998;52.488;13.428;2023-06-10T07:10:23;101230.53;;;22.53;50.54
75420;BME280;63998;52.488;13.428;2023-06-10T07:12:49;101243.78;;;22.53;50.61
75420;BME280;63998;52.488;13.428;2023-06-10T07:15:15;101243.53;;;22.60;50.33
75420;BME280;63998;52.488;13.428;2023-06-10T07:17:40;101241.94;;;22.55;50.55
75420;BME280;63998;52.488;13.428;2023-06-10T07:20:06;101242.13;;;22.73;50.19
75420;BME280;63998;52.488;13.428;2023-06-10T07:22:31;101242.31;;;22.90;50.16
75420;BME280;63998;52.488;13.428;2023-06-10T07:24:57;101239.22;;;23.01;49.62
75420;BME280;63998;52.488;13.428;2023-06-10T07:27:23;101247.25;;;22.99;49.42
75420;BME280;63998;52.488;13.428;2023-06-10T07:29:48;101244.44;;;22.82;49.50
75420;BME280;63998;52.488;13.428;2023-06-10T07:32:13;101255.03;;;22.82;49.81
75420;BME280;63998;52.488;13.428;2023-06-10T07:34:39;101257.34;;;22.89;49.74
75420;BME280;63998;52.488;13.428;2023-06-10T07:37:04;101253.16;;;23.06;49.42
75420;BME280;63998;52.488;13.428;2023-06-10T07:39:30;101256.84;;;23.23;49.11
75420;BME280;63998;52.488;13.428;2023-06-10T07:41:55;101256.69;;;23.26;49.02
75420;BME280;63998;52.488;13.428;2023-06-10T07:44:22;101264.63;;;23.26;49.17
75420;BME280;63998;52.488;13.428;2023-06-10T07:46:48;101252.88;;;23.34;48.90
75420;BME280;63998;52.488;13.428;2023-06-10T07:49:13;101260.13;;;23.28;49.37
75420;BME280;63998;52.488;13.428;2023-06-10T07:51:39;101250.78;;;23.40;48.93
75420;BME280;63998;52.488;13.428;2023-06-10T07:54:04;101250.47;;;23.48;48.90
75420;BME280;63998;52.488;13.428;2023-06-10T07:56:29;101256.28;;;23.57;48.74
75420;BME280;63998;52.488;13.428;2023-06-10T07:58:55;101260.19;;;23.69;48.35
75420;BME280;63998;52.488;13.428;2023-06-10T08:01:20;101254.47;;;23.78;47.99
75420;BME280;63998;52.488;13.428;2023-06-10T08:03:45;101247.41;;;23.77;48.34
75420;BME280;63998;52.488;13.428;2023-06-10T08:06:11;101251.38;;;23.87;48.09
75420;BME280;63998;52.488;13.428;2023-06-10T08:08:37;101254.06;;;24.06;47.87
75420;BME280;63998;52.488;13.428;2023-06-10T08:11:07;101253.84;;;24.31;47.47
75420;BME280;63998;52.488;13.428;2023-06-10T08:13:32;101267.16;;;24.48;47.13
75420;BME280;63998;52.488;13.428;2023-06-10T08:15:58;101267.69;;;24.56;46.82
75420;BME280;63998;52.488;13.428;2023-06-10T08:18:23;101269.75;;;24.68;46.69
75420;BME280;63998;52.488;13.428;2023-06-10T08:20:48;101259.47;;;24.80;46.27
75420;BME280;63998;52.488;13.428;2023-06-10T08:23:14;101260.09;;;24.85;46.33
75420;BME280;63998;52.488;13.428;2023-06-10T08:25:39;101259.78;;;24.91;46.23
75420;BME280;63998;52.488;13.428;2023-06-10T08:28:05;101254.22;;;24.97;45.89
75420;BME280;63998;52.488;13.428;2023-06-10T08:30:30;101260.63;;;25.10;45.40
75420;BME280;63998;52.488;13.428;2023-06-10T08:32:55;101267.97;;;25.22;45.18
75420;BME280;63998;52.488;13.428;2023-06-10T08:35:21;101270.81;;;25.19;44.95
75420;BME280;63998;52.488;13.428;2023-06-10T08:37:47;101267.03;;;25.23;44.81
75420;BME280;63998;52.488;13.428;2023-06-10T08:40:12;101268.78;;;25.41;44.43
75420;BME280;63998;52.488;13.428;2023-06-10T08:43:00;101263.47;;;25.59;43.80
75420;BME280;63998;52.488;13.428;2023-06-10T08:45:29;101266.88;;;25.78;43.57
75420;BME280;63998;52.488;13.428;2023-06-10T08:47:57;101269.41;;;25.81;42.60
75420;BME280;63998;52.488;13.428;2023-06-10T08:50:23;101277.50;;;25.95;42.86
75420;BME280;63998;52.488;13.428;2023-06-10T08:52:53;101277.31;;;25.98;42.29
75420;BME280;63998;52.488;13.428;2023-06-10T08:55:29;101274.47;;;26.19;42.17
75420;BME280;63998;52.488;13.428;2023-06-10T08:57:55;101270.72;;;26.38;41.81
75420;BME280;63998;52.488;13.428;2023-06-10T09:00:21;101268.59;;;26.45;41.69
75420;BME280;63998;52.488;13.428;2023-06-10T09:02:47;101270.56;;;26.57;41.85
75420;BME280;63998;52.488;13.428;2023-06-10T09:05:13;101270.38;;;26.60;41.63
75420;BME280;63998;52.488;13.428;2023-06-10T09:07:39;101265.31;;;26.71;41.67
75420;BME280;63998;52.488;13.428;2023-06-10T09:10:05;101272.19;;;26.75;41.40
75420;BME280;63998;52.488;13.428;2023-06-10T09:12:33;101266.06;;;26.73;41.47
75420;BME280;63998;52.488;13.428;2023-06-10T09:14:59;101267.47;;;26.80;41.39
75420;BME280;63998;52.488;13.428;2023-06-10T09:17:25;101265.22;;;26.89;41.38
75420;BME280;63998;52.488;13.428;2023-06-10T09:19:52;101271.94;;;26.96;41.17
75420;BME280;63998;52.488;13.428;2023-06-10T09:22:19;101265.16;;;27.20;40.96
75420;BME280;63998;52.488;13.428;2023-06-10T09:24:46;101268.59;;;27.22;40.51
75420;BME280;63998;52.488;13.428;2023-06-10T09:27:11;101263.41;;;27.35;39.95
75420;BME280;63998;52.488;13.428;2023-06-10T09:29:47;101261.34;;;27.54;39.71
75420;BME280;63998;52.488;13.428;2023-06-10T09:32:13;101256.09;;;27.52;39.70
75420;BME280;63998;52.488;13.428;2023-06-10T09:34:39;101258.34;;;27.60;38.96
75420;BME280;63998;52.488;13.428;2023-06-10T09:37:05;101263.50;;;27.63;39.35
75420;BME280;63998;52.488;13.428;2023-06-10T09:39:30;101264.88;;;27.54;39.49
75420;BME280;63998;52.488;13.428;2023-06-10T09:41:55;101271.41;;;27.65;39.45
75420;BME280;63998;52.488;13.428;2023-06-10T09:44:21;101276.69;;;27.80;39.35
75420;BME280;63998;52.488;13.428;2023-06-10T09:46:48;101276.47;;;27.69;39.42
75420;BME280;63998;52.488;13.428;2023-06-10T09:49:13;101275.38;;;27.58;39.62
75420;BME280;63998;52.488;13.428;2023-06-10T09:51:52;101280.47;;;27.32;39.54
75420;BME280;63998;52.488;13.428;2023-06-10T09:54:18;101281.53;;;27.14;40.06
75420;BME280;63998;52.488;13.428;2023-06-10T09:56:47;101287.75;;;26.99;40.49
75420;BME280;63998;52.488;13.428;2023-06-10T09:59:12;101281.91;;;26.76;40.51
75420;BME280;63998;52.488;13.428;2023-06-10T10:01:37;101287.59;;;26.70;40.39
75420;BME280;63998;52.488;13.428;2023-06-10T10:04:03;101288.78;;;26.65;40.39
75420;BME280;63998;52.488;13.428;2023-06-10T10:06:29;101285.72;;;26.57;40.44
75420;BME280;63998;52.488;13.428;2023-06-10T10:08:55;101285.00;;;26.53;40.16
75420;BME280;63998;52.488;13.428;2023-06-10T10:11:21;101285.00;;;26.53;40.16
75420;BME280;63998;52.488;13.428;2023-06-10T10:13:49;101281.91;;;26.45;40.03
75420;BME280;63998;52.488;13.428;2023-06-10T10:16:17;101286.56;;;26.41;40.30
75420;BME280;63998;52.488;13.428;2023-06-10T10:18:55;101283.03;;;26.41;40.00
75420;BME280;63998;52.488;13.428;2023-06-10T10:21:27;101296.66;;;26.35;39.98
75420;BME280;63998;52.488;13.428;2023-06-10T10:26:25;101291.63;;;26.30;39.79
75420;BME280;63998;52.488;13.428;2023-06-10T10:29:00;101286.22;;;26.32;39.53
75420;BME280;63998;52.488;13.428;2023-06-10T10:31:29;101278.97;;;26.34;39.53
75420;BME280;63998;52.488;13.428;2023-06-10T10:33:58;101288.69;;;26.35;39.24
75420;BME280;63998;52.488;13.428;2023-06-10T10:36:25;101276.75;;;26.42;39.14
75420;BME280;63998;52.488;13.428;2023-06-10T10:38:51;101280.53;;;26.38;38.22
75420;BME280;63998;52.488;13.428;2023-06-10T10:41:18;101266.09;;;26.42;38.31
75420;BME280;63998;52.488;13.428;2023-06-10T10:43:44;101273.50;;;26.53;37.96
75420;BME280;63998;52.488;13.428;2023-06-10T10:46:13;101274.34;;;26.69;37.42
75420;BME280;63998;52.488;13.428;2023-06-10T10:48:40;101263.47;;;26.88;36.16
75420;BME280;63998;52.488;13.428;2023-06-10T10:51:09;101261.31;;;27.10;35.54
75420;BME280;63998;52.488;13.428;2023-06-10T10:53:37;101263.59;;;27.32;34.93
75420;BME280;63998;52.488;13.428;2023-06-10T10:56:14;101244.91;;;27.76;33.61
75420;BME280;63998;52.488;13.428;2023-06-10T10:58:39;101248.72;;;27.86;34.07
75420;BME280;63998;52.488;13.428;2023-06-10T11:01:12;101246.63;;;27.91;33.36
75420;BME280;63998;52.488;13.428;2023-06-10T11:03:45;101245.09;;;27.87;32.91
75420;BME280;63998;52.488;13.428;2023-06-10T11:06:13;101247.50;;;27.92;33.33
75420;BME280;63998;52.488;13.428;2023-06-10T11:11:20;101238.81;;;28.02;32.71
75420;BME280;63998;52.488;13.428;2023-06-10T11:14:28;101241.56;;;28.15;32.08
75420;BME280;63998;52.488;13.428;2023-06-10T11:16:57;101230.88;;;28.43;32.38
75420;BME280;63998;52.488;13.428;2023-06-10T11:19:36;101229.47;;;28.91;31.26
75420;BME280;63998;52.488;13.428;2023-06-10T11:22:04;101234.31;;;29.51;31.19
75420;BME280;63998;52.488;13.428;2023-06-10T11:24:30;101227.25;;;30.01;30.09
75420;BME280;63998;52.488;13.428;2023-06-10T11:27:23;101222.72;;;30.51;28.75
75420;BME280;63998;52.488;13.428;2023-06-10T11:32:30;101222.47;;;31.25;28.28
75420;BME280;63998;52.488;13.428;2023-06-10T11:34:59;101223.38;;;31.48;28.30
75420;BME280;63998;52.488;13.428;2023-06-10T11:37:25;101228.22;;;31.89;28.29
75420;BME280;63998;52.488;13.428;2023-06-10T11:39:52;101222.56;;;32.15;27.61
75420;BME280;63998;52.488;13.428;2023-06-10T11:42:18;101221.72;;;32.36;27.07
75420;BME280;63998;52.488;13.428;2023-06-10T11:44:49;101225.63;;;32.32;25.85
75420;BME280;63998;52.488;13.428;2023-06-10T11:47:15;101231.97;;;32.31;26.67
75420;BME280;63998;52.488;13.428;2023-06-10T11:49:40;101220.19;;;32.55;26.50
75420;BME280;63998;52.488;13.428;2023-06-10T11:52:06;101226.72;;;32.84;26.41
75420;BME280;63998;52.488;13.428;2023-06-10T11:54:31;101220.31;;;32.96;26.04
75420;BME280;63998;52.488;13.428;2023-06-10T11:57:00;101234.34;;;33.32;25.89
75420;BME280;63998;52.488;13.428;2023-06-10T11:59:29;101219.50;;;33.37;24.91
75420;BME280;63998;52.488;13.428;2023-06-10T12:01:55;101222.97;;;33.49;24.84
75420;BME280;63998;52.488;13.428;2023-06-10T12:04:20;101222.69;;;33.52;24.81
75420;BME280;63998;52.488;13.428;2023-06-10T12:06:51;101223.38;;;33.24;25.89
75420;BME280;63998;52.488;13.428;2023-06-10T12:09:26;101224.69;;;33.50;25.94
75420;BME280;63998;52.488;13.428;2023-06-10T12:11:58;101221.91;;;33.61;24.83
75420;BME280;63998;52.488;13.428;2023-06-10T12:14:56;101219.78;;;33.85;24.79
75420;BME280;63998;52.488;13.428;2023-06-10T12:19:57;101223.06;;;34.29;24.63
75420;BME280;63998;52.488;13.428;2023-06-10T12:22:23;101228.22;;;34.51;23.42
75420;BME280;63998;52.488;13.428;2023-06-10T12:25:04;101227.94;;;34.35;23.50
75420;BME280;63998;52.488;13.428;2023-06-10T12:27:30;101217.81;;;34.28;23.90
75420;BME280;63998;52.488;13.428;2023-06-10T12:29:57;101210.22;;;34.12;24.72
75420;BME280;63998;52.488;13.428;2023-06-10T12:32:55;101206.03;;;34.38;24.03
75420;BME280;63998;52.488;13.428;2023-06-10T12:35:25;101207.06;;;34.56;24.61
75420;BME280;63998;52.488;13.428;2023-06-10T12:38:02;101201.44;;;34.79;24.40
75420;BME280;63998;52.488;13.428;2023-06-10T12:40:33;101196.97;;;35.16;24.15
75420;BME280;63998;52.488;13.428;2023-06-10T12:42:59;101190.91;;;35.61;24.21
75420;BME280;63998;52.488;13.428;2023-06-10T12:48:10;101189.16;;;35.79;23.69
75420;BME280;63998;52.488;13.428;2023-06-10T12:50:40;101193.38;;;35.91;23.90
75420;BME280;63998;52.488;13.428;2023-06-10T12:53:06;101180.16;;;36.16;23.50
75420;BME280;63998;52.488;13.428;2023-06-10T12:55:32;101179.81;;;35.64;23.75